Orbital elements of FENGYUN 1C DEB
| Launched | 9 May 1999 |
| Flight ended | – |
| Launch site | Taiyuan Space Center, PRC |
| Owner | People's Republic of China |
| NORAD ID | 30335 |
| Date fetched |
Epoch osculation |
Inc. [°] |
Ecc. | RA asc node [hr] |
Arg Peri. [°] |
Mean anom [°] |
Mean motion [rev/day] |
Abs. mag |
| Date fetched |
Epoch osculation |
Inc. [°] |
Ecc. | RA asc node [hr] |
Arg Peri. [°] |
Mean anom [°] |
Mean motion [rev/day] |
Abs. mag |
| 2026 May 03 17:57 | 2026 Apr 30 10:20:59 | 98.9161 | 0.01344 | 7.5624 | 105.8667 | 48.2916 | 14.01451 | – |
| 2026 May 02 17:57 | 2026 Apr 30 10:20:59 | 98.9161 | 0.01344 | 7.5624 | 105.8667 | 48.2916 | 14.01451 | – |
| 2026 May 01 17:56 | 2026 Apr 30 10:20:59 | 98.9161 | 0.01344 | 7.5624 | 105.8667 | 48.2916 | 14.01451 | – |
| 2026 Apr 30 17:56 | 2026 Apr 30 10:20:59 | 98.9161 | 0.01344 | 7.5624 | 105.8667 | 48.2916 | 14.01451 | – |
| 2026 Apr 29 17:57 | 2026 Apr 24 11:58:00 | 98.9151 | 0.01343 | 7.1758 | 122.2967 | 48.2916 | 14.01451 | – |
| 2026 Apr 28 17:56 | 2026 Apr 24 11:58:00 | 98.9151 | 0.01343 | 7.1758 | 122.2967 | 48.2916 | 14.01451 | – |
| 2026 Apr 27 17:58 | 2026 Apr 24 11:58:00 | 98.9151 | 0.01343 | 7.1758 | 122.2967 | 48.2916 | 14.01451 | – |
| 2026 Apr 26 17:58 | 2026 Apr 24 11:58:00 | 98.9151 | 0.01343 | 7.1758 | 122.2967 | 48.2916 | 14.01451 | – |
| 2026 Apr 25 17:58 | 2026 Apr 24 11:58:00 | 98.9151 | 0.01343 | 7.1758 | 122.2967 | 48.2916 | 14.01451 | – |
| 2026 Apr 24 17:59 | 2026 Apr 24 11:58:00 | 98.9151 | 0.01343 | 7.1758 | 122.2967 | 48.2916 | 14.01451 | – |
| 2026 Apr 23 17:57 | 2026 Apr 19 12:02:44 | 98.9143 | 0.01341 | 6.8503 | 136.1405 | 48.2916 | 14.01451 | – |
| 2026 Apr 22 17:57 | 2026 Apr 19 12:02:44 | 98.9143 | 0.01341 | 6.8503 | 136.1405 | 48.2916 | 14.01451 | – |
| 2026 Apr 21 17:57 | 2026 Apr 19 12:02:44 | 98.9143 | 0.01341 | 6.8503 | 136.1405 | 48.2916 | 14.01451 | – |
| 2026 Apr 20 17:57 | 2026 Apr 19 12:02:44 | 98.9143 | 0.01341 | 6.8503 | 136.1405 | 48.2916 | 14.01451 | – |
| 2026 Apr 19 17:58 | 2026 Apr 19 12:02:44 | 98.9143 | 0.01341 | 6.8503 | 136.1405 | 48.2916 | 14.01451 | – |
| 2026 Apr 18 17:56 | 2026 Apr 12 23:38:21 | 98.9127 | 0.01338 | 6.4258 | 154.2013 | 48.2916 | 14.01451 | – |
| 2026 Apr 16 17:57 | 2026 Apr 12 23:38:21 | 98.9127 | 0.01338 | 6.4258 | 154.2013 | 48.2916 | 14.01451 | – |
| 2026 Apr 14 17:57 | 2026 Apr 12 23:38:21 | 98.9127 | 0.01338 | 6.4258 | 154.2013 | 48.2916 | 14.01451 | – |
| 2026 Apr 13 17:57 | 2026 Apr 12 23:38:21 | 98.9127 | 0.01338 | 6.4258 | 154.2013 | 48.2916 | 14.01451 | – |
| 2026 Apr 12 17:57 | 2026 Apr 08 12:12:32 | 98.9116 | 0.01337 | 6.1342 | 166.6061 | 48.2916 | 14.01451 | – |
| 2026 Apr 11 17:57 | 2026 Apr 08 12:12:32 | 98.9116 | 0.01337 | 6.1342 | 166.6061 | 48.2916 | 14.01451 | – |
| 2026 Apr 10 17:58 | 2026 Apr 08 12:12:32 | 98.9116 | 0.01337 | 6.1342 | 166.6061 | 48.2916 | 14.01451 | – |
| 2026 Apr 09 18:01 | 2026 Apr 08 12:12:32 | 98.9116 | 0.01337 | 6.1342 | 166.6061 | 48.2916 | 14.01451 | – |
| 2026 Apr 08 17:57 | 2026 Apr 08 12:12:32 | 98.9116 | 0.01337 | 6.1342 | 166.6061 | 48.2916 | 14.01451 | – |
| 2026 Apr 07 17:57 | 2026 Apr 02 06:35:38 | 98.9104 | 0.01334 | 5.7283 | 183.8799 | 48.2916 | 14.01451 | – |
| 2026 Apr 06 17:57 | 2026 Apr 02 06:35:38 | 98.9104 | 0.01334 | 5.7283 | 183.8799 | 48.2916 | 14.01451 | – |